sensor_id;sensor_type;location;lat;lon;timestamp;temperature;humidity
10802;DHT22;5453;50.852;7.102;2022-10-22T00:02:00;14.40;99.90
10802;DHT22;5453;50.852;7.102;2022-10-22T00:04:33;14.40;99.90
10802;DHT22;5453;50.852;7.102;2022-10-22T00:07:07;14.40;99.90
10802;DHT22;5453;50.852;7.102;2022-10-22T00:09:39;14.40;99.90
10802;DHT22;5453;50.852;7.102;2022-10-22T00:12:11;14.40;99.90
10802;DHT22;5453;50.852;7.102;2022-10-22T00:14:44;14.30;99.90
10802;DHT22;5453;50.852;7.102;2022-10-22T00:17:17;14.30;99.90
10802;DHT22;5453;50.852;7.102;2022-10-22T00:19:49;14.40;99.90
10802;DHT22;5453;50.852;7.102;2022-10-22T00:22:23;14.40;99.90
10802;DHT22;5453;50.852;7.102;2022-10-22T00:24:55;14.40;99.90
10802;DHT22;5453;50.852;7.102;2022-10-22T00:27:27;14.30;99.90
10802;DHT22;5453;50.852;7.102;2022-10-22T00:29:59;14.40;99.90
10802;DHT22;5453;50.852;7.102;2022-10-22T00:32:31;14.40;99.90
10802;DHT22;5453;50.852;7.102;2022-10-22T00:35:04;14.40;99.90
10802;DHT22;5453;50.852;7.102;2022-10-22T00:37:37;14.40;99.90
10802;DHT22;5453;50.852;7.102;2022-10-22T00:40:10;14.40;99.90
10802;DHT22;5453;50.852;7.102;2022-10-22T00:42:43;14.40;99.90
10802;DHT22;5453;50.852;7.102;2022-10-22T00:45:19;14.40;99.90
10802;DHT22;5453;50.852;7.102;2022-10-22T00:47:56;14.40;99.90
10802;DHT22;5453;50.852;7.102;2022-10-22T00:50:33;14.40;99.90
10802;DHT22;5453;50.852;7.102;2022-10-22T00:53:11;14.40;99.90
10802;DHT22;5453;50.852;7.102;2022-10-22T00:55:46;14.40;99.90
10802;DHT22;5453;50.852;7.102;2022-10-22T00:58:23;14.30;99.90
10802;DHT22;5453;50.852;7.102;2022-10-22T01:00:57;14.40;99.90
10802;DHT22;5453;50.852;7.102;2022-10-22T01:03:30;14.40;99.90
10802;DHT22;5453;50.852;7.102;2022-10-22T01:06:04;14.40;99.90
10802;DHT22;5453;50.852;7.102;2022-10-22T01:08:43;14.40;99.90
10802;DHT22;5453;50.852;7.102;2022-10-22T01:11:22;14.40;99.90
10802;DHT22;5453;50.852;7.102;2022-10-22T01:14:03;14.30;99.90
10802;DHT22;5453;50.852;7.102;2022-10-22T01:16:47;14.30;99.90
10802;DHT22;5453;50.852;7.102;2022-10-22T01:19:42;14.30;99.90
10802;DHT22;5453;50.852;7.102;2022-10-22T01:22:26;14.30;99.90
10802;DHT22;5453;50.852;7.102;2022-10-22T01:25:08;14.30;99.90
10802;DHT22;5453;50.852;7.102;2022-10-22T01:27:51;14.20;99.90
10802;DHT22;5453;50.852;7.102;2022-10-22T01:30:32;14.20;99.90
10802;DHT22;5453;50.852;7.102;2022-10-22T01:33:09;14.20;99.90
10802;DHT22;5453;50.852;7.102;2022-10-22T01:35:42;14.10;99.90
10802;DHT22;5453;50.852;7.102;2022-10-22T01:38:19;14.20;99.90
10802;DHT22;5453;50.852;7.102;2022-10-22T01:40:53;14.10;99.90
10802;DHT22;5453;50.852;7.102;2022-10-22T01:43:26;14.10;99.90
10802;DHT22;5453;50.852;7.102;2022-10-22T01:46:02;14.00;99.90
10802;DHT22;5453;50.852;7.102;2022-10-22T01:48:46;14.00;99.90
10802;DHT22;5453;50.852;7.102;2022-10-22T01:51:37;14.10;99.90
10802;DHT22;5453;50.852;7.102;2022-10-22T01:54:26;14.10;99.90
10802;DHT22;5453;50.852;7.102;2022-10-22T01:57:08;14.10;99.90
10802;DHT22;5453;50.852;7.102;2022-10-22T01:59:51;14.10;99.90
10802;DHT22;5453;50.852;7.102;2022-10-22T02:02:33;14.10;99.90
10802;DHT22;5453;50.852;7.102;2022-10-22T02:05:11;14.10;99.90
10802;DHT22;5453;50.852;7.102;2022-10-22T02:07:48;14.10;99.90
10802;DHT22;5453;50.852;7.102;2022-10-22T02:10:22;14.20;99.90
10802;DHT22;5453;50.852;7.102;2022-10-22T02:12:56;14.20;99.90
10802;DHT22;5453;50.852;7.102;2022-10-22T02:15:32;14.20;99.90
10802;DHT22;5453;50.852;7.102;2022-10-22T02:18:07;14.30;99.90
10802;DHT22;5453;50.852;7.102;2022-10-22T02:20:41;14.30;99.90
10802;DHT22;5453;50.852;7.102;2022-10-22T02:23:13;14.30;99.90
10802;DHT22;5453;50.852;7.102;2022-10-22T02:25:48;14.30;99.90
10802;DHT22;5453;50.852;7.102;2022-10-22T02:28:25;14.40;99.90
10802;DHT22;5453;50.852;7.102;2022-10-22T02:31:05;14.40;99.90
10802;DHT22;5453;50.852;7.102;2022-10-22T02:33:46;14.30;99.90
10802;DHT22;5453;50.852;7.102;2022-10-22T02:36:20;14.40;99.90
10802;DHT22;5453;50.852;7.102;2022-10-22T02:38:53;14.30;99.90
10802;DHT22;5453;50.852;7.102;2022-10-22T02:41:26;14.30;99.90
10802;DHT22;5453;50.852;7.102;2022-10-22T02:43:58;14.20;99.90
10802;DHT22;5453;50.852;7.102;2022-10-22T02:46:32;14.20;99.90
10802;DHT22;5453;50.852;7.102;2022-10-22T02:49:05;14.20;99.90
10802;DHT22;5453;50.852;7.102;2022-10-22T02:51:37;14.20;99.90
10802;DHT22;5453;50.852;7.102;2022-10-22T02:54:10;14.10;99.90
10802;DHT22;5453;50.852;7.102;2022-10-22T02:56:42;14.10;99.90
10802;DHT22;5453;50.852;7.102;2022-10-22T02:59:14;14.20;99.90
10802;DHT22;5453;50.852;7.102;2022-10-22T03:01:46;14.10;99.90
10802;DHT22;5453;50.852;7.102;2022-10-22T03:04:19;14.10;99.90
10802;DHT22;5453;50.852;7.102;2022-10-22T03:06:51;14.10;99.90
10802;DHT22;5453;50.852;7.102;2022-10-22T03:09:23;14.00;99.90
10802;DHT22;5453;50.852;7.102;2022-10-22T03:11:55;14.00;99.90
10802;DHT22;5453;50.852;7.102;2022-10-22T03:14:27;14.00;99.90
10802;DHT22;5453;50.852;7.102;2022-10-22T03:17:00;14.00;99.90
10802;DHT22;5453;50.852;7.102;2022-10-22T03:19:33;14.00;99.90
10802;DHT22;5453;50.852;7.102;2022-10-22T03:22:08;14.00;99.90
10802;DHT22;5453;50.852;7.102;2022-10-22T03:24:44;13.90;99.90
10802;DHT22;5453;50.852;7.102;2022-10-22T03:27:19;13.90;99.90
10802;DHT22;5453;50.852;7.102;2022-10-22T03:29:52;13.90;99.90
10802;DHT22;5453;50.852;7.102;2022-10-22T03:32:24;13.90;99.90
10802;DHT22;5453;50.852;7.102;2022-10-22T03:34:58;13.80;99.90
10802;DHT22;5453;50.852;7.102;2022-10-22T03:37:31;13.80;99.90
10802;DHT22;5453;50.852;7.102;2022-10-22T03:40:08;13.80;99.90
10802;DHT22;5453;50.852;7.102;2022-10-22T03:42:42;13.80;99.90
10802;DHT22;5453;50.852;7.102;2022-10-22T03:45:14;13.70;99.90
10802;DHT22;5453;50.852;7.102;2022-10-22T03:47:48;13.70;99.90
10802;DHT22;5453;50.852;7.102;2022-10-22T03:50:22;13.70;99.90
10802;DHT22;5453;50.852;7.102;2022-10-22T03:52:54;13.70;99.90
10802;DHT22;5453;50.852;7.102;2022-10-22T03:55:27;13.70;99.90
10802;DHT22;5453;50.852;7.102;2022-10-22T03:58:00;13.70;99.90
10802;DHT22;5453;50.852;7.102;2022-10-22T04:00:33;13.70;99.90
10802;DHT22;5453;50.852;7.102;2022-10-22T04:03:06;13.70;99.90
10802;DHT22;5453;50.852;7.102;2022-10-22T04:05:41;13.70;99.90
10802;DHT22;5453;50.852;7.102;2022-10-22T04:08:14;13.70;99.90
10802;DHT22;5453;50.852;7.102;2022-10-22T04:10:50;13.70;99.90
10802;DHT22;5453;50.852;7.102;2022-10-22T04:13:23;13.70;99.90
10802;DHT22;5453;50.852;7.102;2022-10-22T04:16:04;13.70;99.90
10802;DHT22;5453;50.852;7.102;2022-10-22T04:18:38;13.80;99.90
10802;DHT22;5453;50.852;7.102;2022-10-22T04:21:15;13.80;99.90
10802;DHT22;5453;50.852;7.102;2022-10-22T04:23:51;13.90;99.90
10802;DHT22;5453;50.852;7.102;2022-10-22T04:26:24;14.00;99.90
10802;DHT22;5453;50.852;7.102;2022-10-22T04:28:56;14.10;99.90
10802;DHT22;5453;50.852;7.102;2022-10-22T04:31:29;14.10;99.90
10802;DHT22;5453;50.852;7.102;2022-10-22T04:34:01;14.20;99.90
10802;DHT22;5453;50.852;7.102;2022-10-22T04:36:35;14.20;99.90
10802;DHT22;5453;50.852;7.102;2022-10-22T04:39:08;14.20;99.90
10802;DHT22;5453;50.852;7.102;2022-10-22T04:41:40;14.20;99.90
10802;DHT22;5453;50.852;7.102;2022-10-22T04:44:12;14.20;99.90
10802;DHT22;5453;50.852;7.102;2022-10-22T04:46:45;14.30;99.90
10802;DHT22;5453;50.852;7.102;2022-10-22T04:49:18;14.30;99.90
10802;DHT22;5453;50.852;7.102;2022-10-22T04:51:51;14.30;99.90
10802;DHT22;5453;50.852;7.102;2022-10-22T04:54:24;14.30;99.90
10802;DHT22;5453;50.852;7.102;2022-10-22T04:56:56;14.30;99.90
10802;DHT22;5453;50.852;7.102;2022-10-22T04:59:28;14.30;99.90
10802;DHT22;5453;50.852;7.102;2022-10-22T05:02:01;14.30;99.90
10802;DHT22;5453;50.852;7.102;2022-10-22T05:04:33;14.30;99.90
10802;DHT22;5453;50.852;7.102;2022-10-22T05:07:07;14.30;99.90
10802;DHT22;5453;50.852;7.102;2022-10-22T05:09:39;14.30;99.90
10802;DHT22;5453;50.852;7.102;2022-10-22T05:12:12;14.30;99.90
10802;DHT22;5453;50.852;7.102;2022-10-22T05:14:44;14.30;99.90
10802;DHT22;5453;50.852;7.102;2022-10-22T05:17:17;14.30;99.90
10802;DHT22;5453;50.852;7.102;2022-10-22T05:19:51;14.30;99.90
10802;DHT22;5453;50.852;7.102;2022-10-22T05:22:26;14.30;99.90
10802;DHT22;5453;50.852;7.102;2022-10-22T05:24:58;14.40;99.90
10802;DHT22;5453;50.852;7.102;2022-10-22T05:27:34;14.30;99.90
10802;DHT22;5453;50.852;7.102;2022-10-22T05:30:06;14.30;99.90
10802;DHT22;5453;50.852;7.102;2022-10-22T05:32:39;14.40;99.90
10802;DHT22;5453;50.852;7.102;2022-10-22T05:35:12;14.30;99.90
10802;DHT22;5453;50.852;7.102;2022-10-22T05:37:46;14.30;99.90
10802;DHT22;5453;50.852;7.102;2022-10-22T05:40:18;14.30;99.90
10802;DHT22;5453;50.852;7.102;2022-10-22T05:42:50;14.40;99.90
10802;DHT22;5453;50.852;7.102;2022-10-22T05:45:23;14.30;99.90
10802;DHT22;5453;50.852;7.102;2022-10-22T05:47:55;14.30;99.90
10802;DHT22;5453;50.852;7.102;2022-10-22T05:50:27;14.20;99.90
10802;DHT22;5453;50.852;7.102;2022-10-22T05:53:01;14.10;99.90
10802;DHT22;5453;50.852;7.102;2022-10-22T05:55:34;14.10;99.90
10802;DHT22;5453;50.852;7.102;2022-10-22T05:58:09;14.00;99.90
10802;DHT22;5453;50.852;7.102;2022-10-22T06:00:42;13.90;99.90
10802;DHT22;5453;50.852;7.102;2022-10-22T06:03:14;13.80;99.90
10802;DHT22;5453;50.852;7.102;2022-10-22T06:05:46;13.70;99.90
10802;DHT22;5453;50.852;7.102;2022-10-22T06:08:21;13.70;99.90
10802;DHT22;5453;50.852;7.102;2022-10-22T06:10:54;13.70;99.90
10802;DHT22;5453;50.852;7.102;2022-10-22T06:13:27;13.70;99.90
10802;DHT22;5453;50.852;7.102;2022-10-22T06:15:59;13.70;99.90
10802;DHT22;5453;50.852;7.102;2022-10-22T06:18:32;13.70;99.90
10802;DHT22;5453;50.852;7.102;2022-10-22T06:21:06;13.70;99.90
10802;DHT22;5453;50.852;7.102;2022-10-22T06:23:43;13.70;99.90
10802;DHT22;5453;50.852;7.102;2022-10-22T06:26:15;13.70;99.90
10802;DHT22;5453;50.852;7.102;2022-10-22T06:28:47;13.70;99.90
10802;DHT22;5453;50.852;7.102;2022-10-22T06:31:20;13.70;99.90
10802;DHT22;5453;50.852;7.102;2022-10-22T06:33:53;13.70;99.90
10802;DHT22;5453;50.852;7.102;2022-10-22T06:36:25;13.80;99.90
10802;DHT22;5453;50.852;7.102;2022-10-22T06:39:00;13.90;99.90
10802;DHT22;5453;50.852;7.102;2022-10-22T06:41:33;14.00;99.90
10802;DHT22;5453;50.852;7.102;2022-10-22T06:44:05;14.10;99.90
10802;DHT22;5453;50.852;7.102;2022-10-22T06:46:37;14.20;99.90
10802;DHT22;5453;50.852;7.102;2022-10-22T06:49:12;14.30;99.90
10802;DHT22;5453;50.852;7.102;2022-10-22T06:51:48;14.30;99.90
10802;DHT22;5453;50.852;7.102;2022-10-22T06:54:24;14.40;99.90
10802;DHT22;5453;50.852;7.102;2022-10-22T06:56:58;14.50;99.90
10802;DHT22;5453;50.852;7.102;2022-10-22T06:59:31;14.50;99.90
10802;DHT22;5453;50.852;7.102;2022-10-22T07:02:03;14.60;99.90
10802;DHT22;5453;50.852;7.102;2022-10-22T07:04:36;14.70;99.90
10802;DHT22;5453;50.852;7.102;2022-10-22T07:07:08;14.70;99.90
10802;DHT22;5453;50.852;7.102;2022-10-22T07:09:45;14.70;99.90
10802;DHT22;5453;50.852;7.102;2022-10-22T07:12:18;14.70;99.90
10802;DHT22;5453;50.852;7.102;2022-10-22T07:14:51;14.80;99.90
10802;DHT22;5453;50.852;7.102;2022-10-22T07:17:24;14.80;99.90
10802;DHT22;5453;50.852;7.102;2022-10-22T07:19:56;14.90;99.90
10802;DHT22;5453;50.852;7.102;2022-10-22T07:22:28;14.90;99.90
10802;DHT22;5453;50.852;7.102;2022-10-22T07:25:02;14.90;99.90
10802;DHT22;5453;50.852;7.102;2022-10-22T07:27:35;15.00;99.90
10802;DHT22;5453;50.852;7.102;2022-10-22T07:30:08;15.00;99.90
10802;DHT22;5453;50.852;7.102;2022-10-22T07:32:41;15.10;99.90
10802;DHT22;5453;50.852;7.102;2022-10-22T07:35:13;15.10;99.90
10802;DHT22;5453;50.852;7.102;2022-10-22T07:37:46;15.10;99.90
10802;DHT22;5453;50.852;7.102;2022-10-22T07:40:20;15.20;99.90
10802;DHT22;5453;50.852;7.102;2022-10-22T07:42:52;15.10;99.90
10802;DHT22;5453;50.852;7.102;2022-10-22T07:45:25;15.20;99.90
10802;DHT22;5453;50.852;7.102;2022-10-22T07:47:57;15.20;99.90
10802;DHT22;5453;50.852;7.102;2022-10-22T07:50:30;15.30;99.90
10802;DHT22;5453;50.852;7.102;2022-10-22T07:53:02;15.60;99.90
10802;DHT22;5453;50.852;7.102;2022-10-22T07:55:39;16.30;99.90
10802;DHT22;5453;50.852;7.102;2022-10-22T07:58:12;17.00;99.90
10802;DHT22;5453;50.852;7.102;2022-10-22T08:00:46;17.50;99.90
10802;DHT22;5453;50.852;7.102;2022-10-22T08:03:19;17.90;99.90
10802;DHT22;5453;50.852;7.102;2022-10-22T08:05:54;17.90;99.90
10802;DHT22;5453;50.852;7.102;2022-10-22T08:08:30;17.90;99.90
10802;DHT22;5453;50.852;7.102;2022-10-22T08:11:04;17.90;99.90
10802;DHT22;5453;50.852;7.102;2022-10-22T08:13:38;18.30;99.90
10802;DHT22;5453;50.852;7.102;2022-10-22T08:16:11;18.60;99.90
10802;DHT22;5453;50.852;7.102;2022-10-22T08:18:43;18.90;99.90
10802;DHT22;5453;50.852;7.102;2022-10-22T08:21:16;18.90;99.90
10802;DHT22;5453;50.852;7.102;2022-10-22T08:23:49;18.90;99.90
10802;DHT22;5453;50.852;7.102;2022-10-22T08:26:24;18.90;99.90
10802;DHT22;5453;50.852;7.102;2022-10-22T08:28:56;18.70;99.90
10802;DHT22;5453;50.852;7.102;2022-10-22T08:31:29;18.60;99.90
10802;DHT22;5453;50.852;7.102;2022-10-22T08:34:01;18.30;99.90
10802;DHT22;5453;50.852;7.102;2022-10-22T08:36:36;18.20;99.90
10802;DHT22;5453;50.852;7.102;2022-10-22T08:39:13;17.90;99.90
10802;DHT22;5453;50.852;7.102;2022-10-22T08:41:51;17.80;99.90
10802;DHT22;5453;50.852;7.102;2022-10-22T08:44:51;17.60;99.90
10802;DHT22;5453;50.852;7.102;2022-10-22T08:47:43;17.50;99.90
10802;DHT22;5453;50.852;7.102;2022-10-22T08:50:30;17.40;99.90
10802;DHT22;5453;50.852;7.102;2022-10-22T08:53:12;17.20;99.90
10802;DHT22;5453;50.852;7.102;2022-10-22T08:55:46;17.10;99.90
10802;DHT22;5453;50.852;7.102;2022-10-22T08:58:30;17.00;99.90
10802;DHT22;5453;50.852;7.102;2022-10-22T09:01:12;17.00;99.90
10802;DHT22;5453;50.852;7.102;2022-10-22T09:03:49;16.90;99.90
10802;DHT22;5453;50.852;7.102;2022-10-22T09:06:26;16.90;99.90
10802;DHT22;5453;50.852;7.102;2022-10-22T09:09:08;16.90;99.90
10802;DHT22;5453;50.852;7.102;2022-10-22T09:11:44;16.90;99.90
10802;DHT22;5453;50.852;7.102;2022-10-22T09:14:21;16.80;99.90
10802;DHT22;5453;50.852;7.102;2022-10-22T09:17:10;16.80;99.90
10802;DHT22;5453;50.852;7.102;2022-10-22T09:19:52;16.80;99.90
10802;DHT22;5453;50.852;7.102;2022-10-22T09:22:36;16.80;99.90
10802;DHT22;5453;50.852;7.102;2022-10-22T09:25:22;16.80;99.90
10802;DHT22;5453;50.852;7.102;2022-10-22T09:27:59;16.80;99.90
10802;DHT22;5453;50.852;7.102;2022-10-22T09:30:36;16.70;99.90
10802;DHT22;5453;50.852;7.102;2022-10-22T09:33:13;16.70;99.90
10802;DHT22;5453;50.852;7.102;2022-10-22T09:35:51;16.80;99.90
10802;DHT22;5453;50.852;7.102;2022-10-22T09:38:26;16.80;99.90
10802;DHT22;5453;50.852;7.102;2022-10-22T09:41:01;17.00;99.90
10802;DHT22;5453;50.852;7.102;2022-10-22T09:43:33;17.20;99.90
10802;DHT22;5453;50.852;7.102;2022-10-22T09:46:14;17.30;99.90
10802;DHT22;5453;50.852;7.102;2022-10-22T09:48:50;17.40;99.90
10802;DHT22;5453;50.852;7.102;2022-10-22T09:51:35;17.50;99.90
10802;DHT22;5453;50.852;7.102;2022-10-22T09:54:15;17.40;99.90
10802;DHT22;5453;50.852;7.102;2022-10-22T09:56:54;17.40;99.90
10802;DHT22;5453;50.852;7.102;2022-10-22T09:59:29;17.50;99.90
10802;DHT22;5453;50.852;7.102;2022-10-22T10:02:10;17.50;99.90
10802;DHT22;5453;50.852;7.102;2022-10-22T10:04:45;17.50;99.90
10802;DHT22;5453;50.852;7.102;2022-10-22T10:07:20;17.50;99.90
10802;DHT22;5453;50.852;7.102;2022-10-22T10:09:54;17.60;99.90
10802;DHT22;5453;50.852;7.102;2022-10-22T10:12:34;17.70;99.90
10802;DHT22;5453;50.852;7.102;2022-10-22T10:15:16;17.70;99.90
10802;DHT22;5453;50.852;7.102;2022-10-22T10:18:02;17.70;99.90
10802;DHT22;5453;50.852;7.102;2022-10-22T10:20:40;17.80;99.90
10802;DHT22;5453;50.852;7.102;2022-10-22T10:23:24;17.90;99.90
10802;DHT22;5453;50.852;7.102;2022-10-22T10:26:06;17.90;99.90
10802;DHT22;5453;50.852;7.102;2022-10-22T10:28:54;18.00;99.90
10802;DHT22;5453;50.852;7.102;2022-10-22T10:31:40;18.00;99.90
10802;DHT22;5453;50.852;7.102;2022-10-22T10:34:26;18.00;99.90
10802;DHT22;5453;50.852;7.102;2022-10-22T10:37:12;18.00;99.90
10802;DHT22;5453;50.852;7.102;2022-10-22T10:40:11;18.10;99.90
10802;DHT22;5453;50.852;7.102;2022-10-22T10:42:54;18.10;99.90
10802;DHT22;5453;50.852;7.102;2022-10-22T10:45:32;18.30;99.90
10802;DHT22;5453;50.852;7.102;2022-10-22T10:51:14;18.40;99.90
10802;DHT22;5453;50.852;7.102;2022-10-22T10:54:12;18.50;99.90
10802;DHT22;5453;50.852;7.102;2022-10-22T10:57:01;18.60;99.90
10802;DHT22;5453;50.852;7.102;2022-10-22T10:59:44;18.60;99.90
10802;DHT22;5453;50.852;7.102;2022-10-22T11:05:40;18.50;99.90
10802;DHT22;5453;50.852;7.102;2022-10-22T11:08:19;18.50;99.90
10802;DHT22;5453;50.852;7.102;2022-10-22T11:10:54;18.50;99.90
10802;DHT22;5453;50.852;7.102;2022-10-22T11:13:33;18.60;99.90
10802;DHT22;5453;50.852;7.102;2022-10-22T11:16:11;18.60;99.90
10802;DHT22;5453;50.852;7.102;2022-10-22T11:18:54;18.50;99.90
10802;DHT22;5453;50.852;7.102;2022-10-22T11:21:33;18.50;99.90
10802;DHT22;5453;50.852;7.102;2022-10-22T11:24:18;18.50;99.90
10802;DHT22;5453;50.852;7.102;2022-10-22T11:26:54;18.50;99.90
10802;DHT22;5453;50.852;7.102;2022-10-22T11:29:31;18.40;99.90
10802;DHT22;5453;50.852;7.102;2022-10-22T11:32:10;18.40;99.90
10802;DHT22;5453;50.852;7.102;2022-10-22T11:34:45;18.40;99.90
10802;DHT22;5453;50.852;7.102;2022-10-22T11:37:20;18.40;99.90
10802;DHT22;5453;50.852;7.102;2022-10-22T11:39:56;18.40;99.90
10802;DHT22;5453;50.852;7.102;2022-10-22T11:42:34;18.30;99.90
10802;DHT22;5453;50.852;7.102;2022-10-22T11:45:27;18.30;99.90
10802;DHT22;5453;50.852;7.102;2022-10-22T11:48:06;18.30;99.90
10802;DHT22;5453;50.852;7.102;2022-10-22T11:50:48;18.30;99.90
10802;DHT22;5453;50.852;7.102;2022-10-22T11:53:29;18.20;99.90
10802;DHT22;5453;50.852;7.102;2022-10-22T11:56:21;18.20;99.90
10802;DHT22;5453;50.852;7.102;2022-10-22T11:58:55;18.10;99.90
10802;DHT22;5453;50.852;7.102;2022-10-22T12:01:29;18.30;99.90
10802;DHT22;5453;50.852;7.102;2022-10-22T12:04:19;18.50;99.90
10802;DHT22;5453;50.852;7.102;2022-10-22T12:06:57;18.60;99.90
10802;DHT22;5453;50.852;7.102;2022-10-22T12:09:31;18.60;99.90
10802;DHT22;5453;50.852;7.102;2022-10-22T12:12:11;18.50;99.90
10802;DHT22;5453;50.852;7.102;2022-10-22T12:14:53;18.40;99.90
10802;DHT22;5453;50.852;7.102;2022-10-22T12:17:27;18.30;99.90
10802;DHT22;5453;50.852;7.102;2022-10-22T12:20:06;18.30;99.90
10802;DHT22;5453;50.852;7.102;2022-10-22T12:22:42;18.30;99.90
10802;DHT22;5453;50.852;7.102;2022-10-22T12:25:20;18.30;99.90
10802;DHT22;5453;50.852;7.102;2022-10-22T12:27:58;18.30;99.90
10802;DHT22;5453;50.852;7.102;2022-10-22T12:30:32;18.30;99.90
10802;DHT22;5453;50.852;7.102;2022-10-22T12:33:06;18.20;99.90
10802;DHT22;5453;50.852;7.102;2022-10-22T12:35:42;18.30;99.90
10802;DHT22;5453;50.852;7.102;2022-10-22T12:38:17;18.20;99.90
10802;DHT22;5453;50.852;7.102;2022-10-22T12:40:55;18.20;99.90
10802;DHT22;5453;50.852;7.102;2022-10-22T12:43:29;18.20;99.90
10802;DHT22;5453;50.852;7.102;2022-10-22T12:46:03;18.30;99.90
10802;DHT22;5453;50.852;7.102;2022-10-22T12:48:38;18.40;99.90
10802;DHT22;5453;50.852;7.102;2022-10-22T12:51:15;18.60;99.90
10802;DHT22;5453;50.852;7.102;2022-10-22T12:53:51;18.80;99.90
10802;DHT22;5453;50.852;7.102;2022-10-22T12:56:26;19.00;99.90
10802;DHT22;5453;50.852;7.102;2022-10-22T12:59:02;19.10;99.90
10802;DHT22;5453;50.852;7.102;2022-10-22T13:01:38;19.30;99.90
10802;DHT22;5453;50.852;7.102;2022-10-22T13:04:20;19.40;99.90
10802;DHT22;5453;50.852;7.102;2022-10-22T13:07:15;19.50;99.90
10802;DHT22;5453;50.852;7.102;2022-10-22T13:09:57;19.60;99.90
10802;DHT22;5453;50.852;7.102;2022-10-22T13:12:34;19.60;99.90
10802;DHT22;5453;50.852;7.102;2022-10-22T13:15:36;19.50;99.90
10802;DHT22;5453;50.852;7.102;2022-10-22T13:18:18;19.40;99.90
10802;DHT22;5453;50.852;7.102;2022-10-22T13:20:53;19.30;99.90
10802;DHT22;5453;50.852;7.102;2022-10-22T13:23:28;19.20;99.90
10802;DHT22;5453;50.852;7.102;2022-10-22T13:26:03;19.20;99.90
10802;DHT22;5453;50.852;7.102;2022-10-22T13:28:48;19.10;99.90
10802;DHT22;5453;50.852;7.102;2022-10-22T13:31:24;19.10;99.90
10802;DHT22;5453;50.852;7.102;2022-10-22T13:33:59;19.10;99.90
10802;DHT22;5453;50.852;7.102;2022-10-22T13:36:35;19.00;99.90
10802;DHT22;5453;50.852;7.102;2022-10-22T13:39:12;19.00;99.90
10802;DHT22;5453;50.852;7.102;2022-10-22T13:41:48;19.00;99.90
10802;DHT22;5453;50.852;7.102;2022-10-22T13:44:20;19.00;99.90
10802;DHT22;5453;50.852;7.102;2022-10-22T13:46:54;19.10;99.90
10802;DHT22;5453;50.852;7.102;2022-10-22T13:49:26;19.10;99.90
10802;DHT22;5453;50.852;7.102;2022-10-22T13:51:58;19.20;99.90
10802;DHT22;5453;50.852;7.102;2022-10-22T13:54:31;19.30;99.90
10802;DHT22;5453;50.852;7.102;2022-10-22T13:57:06;19.30;99.90
10802;DHT22;5453;50.852;7.102;2022-10-22T13:59:39;19.30;99.90
10802;DHT22;5453;50.852;7.102;2022-10-22T14:02:13;19.30;99.90
10802;DHT22;5453;50.852;7.102;2022-10-22T14:04:45;19.40;99.90
10802;DHT22;5453;50.852;7.102;2022-10-22T14:07:18;19.50;99.90
10802;DHT22;5453;50.852;7.102;2022-10-22T14:09:50;19.50;99.90
10802;DHT22;5453;50.852;7.102;2022-10-22T14:12:22;19.60;99.90
10802;DHT22;5453;50.852;7.102;2022-10-22T14:14:54;19.50;99.90
10802;DHT22;5453;50.852;7.102;2022-10-22T14:17:28;19.50;99.90
10802;DHT22;5453;50.852;7.102;2022-10-22T14:20:02;19.40;99.90
10802;DHT22;5453;50.852;7.102;2022-10-22T14:22:34;19.40;99.90
10802;DHT22;5453;50.852;7.102;2022-10-22T14:25:08;19.50;99.90
10802;DHT22;5453;50.852;7.102;2022-10-22T14:27:42;19.60;99.90
10802;DHT22;5453;50.852;7.102;2022-10-22T14:30:15;19.60;99.90
10802;DHT22;5453;50.852;7.102;2022-10-22T14:32:50;19.60;99.90
10802;DHT22;5453;50.852;7.102;2022-10-22T14:35:22;19.60;99.90
10802;DHT22;5453;50.852;7.102;2022-10-22T14:37:55;19.60;99.90
10802;DHT22;5453;50.852;7.102;2022-10-22T14:40:27;19.60;99.90
10802;DHT22;5453;50.852;7.102;2022-10-22T14:43:00;19.60;99.90
10802;DHT22;5453;50.852;7.102;2022-10-22T14:45:32;19.60;99.90
10802;DHT22;5453;50.852;7.102;2022-10-22T14:48:06;19.50;99.90
10802;DHT22;5453;50.852;7.102;2022-10-22T14:50:38;19.50;99.90
10802;DHT22;5453;50.852;7.102;2022-10-22T14:53:11;19.50;99.90
10802;DHT22;5453;50.852;7.102;2022-10-22T14:55:45;19.50;99.90
10802;DHT22;5453;50.852;7.102;2022-10-22T14:58:18;19.40;99.90
10802;DHT22;5453;50.852;7.102;2022-10-22T15:00:51;19.40;99.90
10802;DHT22;5453;50.852;7.102;2022-10-22T15:03:24;19.40;99.90
10802;DHT22;5453;50.852;7.102;2022-10-22T15:05:56;19.40;99.90
10802;DHT22;5453;50.852;7.102;2022-10-22T15:08:29;19.40;99.90
10802;DHT22;5453;50.852;7.102;2022-10-22T15:11:03;19.30;99.90
10802;DHT22;5453;50.852;7.102;2022-10-22T15:13:36;19.30;99.90
10802;DHT22;5453;50.852;7.102;2022-10-22T15:16:15;19.20;99.90
10802;DHT22;5453;50.852;7.102;2022-10-22T15:18:49;19.10;99.90
10802;DHT22;5453;50.852;7.102;2022-10-22T15:21:22;19.00;99.90
10802;DHT22;5453;50.852;7.102;2022-10-22T15:23:54;19.00;99.90
10802;DHT22;5453;50.852;7.102;2022-10-22T15:26:26;18.90;99.90
10802;DHT22;5453;50.852;7.102;2022-10-22T15:29:00;18.90;99.90
10802;DHT22;5453;50.852;7.102;2022-10-22T15:31:44;18.80;99.90
10802;DHT22;5453;50.852;7.102;2022-10-22T15:34:21;18.70;99.90
10802;DHT22;5453;50.852;7.102;2022-10-22T15:36:56;18.70;99.90
10802;DHT22;5453;50.852;7.102;2022-10-22T15:39:30;18.60;99.90
10802;DHT22;5453;50.852;7.102;2022-10-22T15:42:02;18.50;99.90
10802;DHT22;5453;50.852;7.102;2022-10-22T15:44:35;18.50;99.90
10802;DHT22;5453;50.852;7.102;2022-10-22T15:47:07;18.40;99.90
10802;DHT22;5453;50.852;7.102;2022-10-22T15:49:40;18.40;99.90
10802;DHT22;5453;50.852;7.102;2022-10-22T15:52:13;18.30;99.90
10802;DHT22;5453;50.852;7.102;2022-10-22T15:54:45;18.30;99.90
10802;DHT22;5453;50.852;7.102;2022-10-22T15:57:18;18.10;99.90
10802;DHT22;5453;50.852;7.102;2022-10-22T15:59:50;18.10;99.90
10802;DHT22;5453;50.852;7.102;2022-10-22T16:02:22;18.00;99.90
10802;DHT22;5453;50.852;7.102;2022-10-22T16:04:55;17.90;99.90
10802;DHT22;5453;50.852;7.102;2022-10-22T16:07:28;17.90;99.90
10802;DHT22;5453;50.852;7.102;2022-10-22T16:10:01;17.80;99.90
10802;DHT22;5453;50.852;7.102;2022-10-22T16:12:33;17.80;99.90
10802;DHT22;5453;50.852;7.102;2022-10-22T16:15:07;17.80;99.90
10802;DHT22;5453;50.852;7.102;2022-10-22T16:17:40;17.70;99.90
10802;DHT22;5453;50.852;7.102;2022-10-22T16:20:14;17.70;99.90
10802;DHT22;5453;50.852;7.102;2022-10-22T16:22:48;17.70;99.90
10802;DHT22;5453;50.852;7.102;2022-10-22T16:25:20;17.60;99.90
10802;DHT22;5453;50.852;7.102;2022-10-22T16:27:54;17.60;99.90
10802;DHT22;5453;50.852;7.102;2022-10-22T16:30:26;17.50;99.90
10802;DHT22;5453;50.852;7.102;2022-10-22T16:32:58;17.50;99.90
10802;DHT22;5453;50.852;7.102;2022-10-22T16:35:32;17.50;99.90
10802;DHT22;5453;50.852;7.102;2022-10-22T16:38:04;17.40;99.90
10802;DHT22;5453;50.852;7.102;2022-10-22T16:40:36;17.40;99.90
10802;DHT22;5453;50.852;7.102;2022-10-22T16:43:08;17.40;99.90
10802;DHT22;5453;50.852;7.102;2022-10-22T16:45:46;17.30;99.90